createdAt,value
2018-08-17T00:00:31.517Z,99.90
2018-08-17T00:03:00.867Z,99.90
2018-08-17T00:05:30.781Z,99.90
2018-08-17T00:08:00.187Z,99.90
2018-08-17T00:10:29.773Z,99.90
2018-08-17T00:12:59.106Z,99.90
2018-08-17T00:15:28.425Z,99.90
2018-08-17T00:17:57.798Z,99.90
2018-08-17T00:20:27.457Z,99.90
2018-08-17T00:22:56.772Z,99.90
2018-08-17T00:25:26.164Z,99.90
2018-08-17T00:27:55.481Z,99.90
2018-08-17T00:30:24.932Z,99.90
2018-08-17T00:32:54.268Z,99.90
2018-08-17T00:35:23.632Z,99.90
2018-08-17T00:37:53.941Z,99.90
2018-08-17T00:40:23.413Z,99.90
2018-08-17T00:42:52.816Z,99.90
2018-08-17T00:45:22.354Z,99.90
2018-08-17T00:47:51.758Z,99.90
2018-08-17T00:50:21.213Z,99.90
2018-08-17T00:52:50.562Z,99.90
2018-08-17T00:55:19.965Z,99.90
2018-08-17T00:57:49.321Z,99.90
2018-08-17T01:00:18.858Z,99.90
2018-08-17T01:02:48.223Z,99.90
2018-08-17T01:05:17.629Z,99.90
2018-08-17T01:07:46.998Z,99.90
2018-08-17T01:10:16.503Z,99.90
2018-08-17T01:12:45.905Z,99.90
2018-08-17T01:15:16.109Z,99.90
2018-08-17T01:17:45.461Z,99.90
2018-08-17T01:20:14.917Z,99.90
2018-08-17T01:22:44.276Z,99.90
2018-08-17T01:25:13.620Z,99.90
2018-08-17T01:27:42.968Z,99.90
2018-08-17T01:30:12.401Z,99.90
2018-08-17T01:32:41.744Z,99.90
2018-08-17T01:35:11.054Z,99.90
2018-08-17T01:37:40.427Z,99.90
2018-08-17T01:40:09.845Z,99.90
2018-08-17T01:42:39.538Z,99.90
2018-08-17T01:45:08.921Z,99.90
2018-08-17T01:47:38.289Z,99.90
2018-08-17T01:50:07.780Z,99.90
2018-08-17T01:52:37.150Z,99.90
2018-08-17T01:55:08.653Z,99.90
2018-08-17T01:57:38.013Z,99.90
2018-08-17T02:00:09.499Z,99.90
2018-08-17T02:02:40.548Z,99.90
2018-08-17T02:05:10.752Z,99.90
2018-08-17T02:07:40.085Z,99.90
2018-08-17T02:10:11.908Z,99.90
2018-08-17T02:12:41.257Z,99.90
2018-08-17T02:15:11.534Z,99.90
2018-08-17T02:17:40.989Z,99.90
2018-08-17T02:20:10.768Z,99.90
2018-08-17T02:22:40.120Z,99.90
2018-08-17T02:25:09.592Z,99.90
2018-08-17T02:27:38.981Z,99.90
2018-08-17T02:30:08.715Z,99.90
2018-08-17T02:32:38.058Z,99.90
2018-08-17T02:35:07.421Z,99.90
2018-08-17T02:37:36.793Z,99.90
2018-08-17T02:40:06.636Z,99.90
2018-08-17T02:42:35.984Z,99.90
2018-08-17T02:45:05.978Z,99.90
2018-08-17T02:47:35.358Z,99.90
2018-08-17T02:50:07.256Z,99.90
2018-08-17T02:52:36.589Z,99.90
2018-08-17T02:55:06.328Z,99.90
2018-08-17T02:57:35.712Z,99.90
2018-08-17T03:00:05.416Z,99.90
2018-08-17T03:02:34.734Z,99.90
2018-08-17T03:05:04.183Z,99.90
2018-08-17T03:07:33.523Z,99.90
2018-08-17T03:10:02.974Z,99.90
2018-08-17T03:12:32.321Z,99.90
2018-08-17T03:15:01.662Z,99.90
2018-08-17T03:17:31.489Z,99.90
2018-08-17T03:20:01.959Z,99.90
2018-08-17T03:22:31.386Z,99.90
2018-08-17T03:25:00.741Z,99.90
2018-08-17T03:27:30.090Z,99.90
2018-08-17T03:29:59.503Z,99.90
2018-08-17T03:32:29.175Z,99.90
2018-08-17T03:34:58.505Z,99.90
2018-08-17T03:37:27.870Z,99.90
2018-08-17T03:39:57.344Z,99.90
2018-08-17T03:42:26.979Z,99.90
2018-08-17T03:44:56.352Z,99.90
2018-08-17T03:47:25.821Z,99.90
2018-08-17T03:49:55.360Z,99.90
2018-08-17T03:52:24.982Z,99.90
2018-08-17T03:54:54.835Z,99.90
2018-08-17T03:57:24.152Z,99.90
2018-08-17T03:59:53.564Z,99.90
2018-08-17T04:02:22.921Z,99.90
2018-08-17T04:04:52.271Z,99.90
2018-08-17T04:07:21.728Z,99.90
2018-08-17T04:09:51.076Z,99.90
2018-08-17T04:12:20.417Z,99.90
2018-08-17T04:14:49.754Z,99.90
2018-08-17T04:17:19.265Z,99.90
2018-08-17T04:19:48.870Z,99.90
2018-08-17T04:22:18.487Z,99.90
2018-08-17T04:24:48.451Z,99.90
2018-08-17T04:27:17.990Z,99.90
2018-08-17T04:29:47.681Z,99.90
2018-08-17T04:32:17.163Z,99.90
2018-08-17T04:34:46.711Z,99.90
2018-08-17T04:37:16.094Z,99.90
2018-08-17T04:39:45.443Z,99.90
2018-08-17T04:42:14.835Z,99.90
2018-08-17T04:44:44.325Z,99.90
2018-08-17T04:47:13.725Z,99.90
2018-08-17T04:49:43.230Z,99.90
2018-08-17T04:52:12.803Z,99.90
2018-08-17T04:54:42.209Z,99.90
2018-08-17T04:57:12.480Z,99.90
2018-08-17T04:59:42.065Z,99.90
2018-08-17T05:02:11.635Z,99.90
2018-08-17T05:04:41.172Z,99.90
2018-08-17T05:07:11.625Z,99.90
2018-08-17T05:09:41.217Z,99.90
2018-08-17T05:12:10.964Z,99.90
2018-08-17T05:14:40.364Z,99.90
2018-08-17T05:17:09.817Z,99.90
2018-08-17T05:19:39.356Z,99.90
2018-08-17T05:22:09.010Z,99.90
2018-08-17T05:24:38.524Z,99.90
2018-08-17T05:27:08.218Z,99.90
2018-08-17T05:29:38.290Z,99.90
2018-08-17T05:32:08.670Z,99.90
2018-08-17T05:34:38.236Z,99.90
2018-08-17T05:37:07.997Z,99.90
2018-08-17T05:39:37.690Z,99.90
2018-08-17T05:42:07.360Z,99.90
2018-08-17T05:44:36.910Z,99.90
2018-08-17T05:47:06.513Z,99.90
2018-08-17T05:49:36.128Z,99.90
2018-08-17T05:52:05.841Z,99.90
2018-08-17T05:54:35.540Z,99.90
2018-08-17T05:57:05.266Z,99.90
2018-08-17T05:59:35.191Z,99.90
2018-08-17T06:02:05.151Z,99.90
2018-08-17T06:04:34.800Z,99.90
2018-08-17T06:07:05.171Z,99.90
2018-08-17T06:09:35.497Z,99.90
2018-08-17T06:12:05.936Z,99.90
2018-08-17T06:14:36.272Z,99.90
2018-08-17T06:17:06.656Z,99.90
2018-08-17T06:19:37.314Z,99.90
2018-08-17T06:22:08.158Z,99.90
2018-08-17T06:24:38.818Z,99.90
2018-08-17T06:27:08.382Z,99.90
2018-08-17T06:29:38.353Z,99.90
2018-08-17T06:32:08.748Z,99.90
2018-08-17T06:34:38.654Z,99.90
2018-08-17T06:37:08.645Z,99.90
2018-08-17T06:39:38.204Z,99.90
2018-08-17T06:42:07.745Z,99.90
2018-08-17T06:44:37.282Z,99.90
2018-08-17T06:47:06.868Z,99.90
2018-08-17T06:49:36.529Z,99.90
2018-08-17T06:52:06.104Z,99.90
2018-08-17T06:54:36.148Z,99.90
2018-08-17T06:57:05.852Z,99.90
2018-08-17T06:59:36.511Z,99.90
2018-08-17T07:02:06.638Z,99.90
2018-08-17T07:04:36.596Z,99.90
2018-08-17T07:07:06.241Z,99.90
2018-08-17T07:09:36.000Z,99.90
2018-08-17T07:12:05.609Z,99.90
2018-08-17T07:14:35.164Z,99.90
2018-08-17T07:17:04.767Z,99.90
2018-08-17T07:19:34.362Z,99.90
2018-08-17T07:22:03.944Z,99.90
2018-08-17T07:24:33.491Z,99.90
2018-08-17T07:27:03.055Z,99.90
2018-08-17T07:29:32.664Z,99.90
2018-08-17T07:32:02.252Z,99.90
2018-08-17T07:34:32.148Z,99.90
2018-08-17T07:37:01.782Z,99.90
2018-08-17T07:39:31.414Z,99.90
2018-08-17T07:42:00.973Z,99.90
2018-08-17T07:44:30.504Z,99.90
2018-08-17T07:47:00.068Z,99.90
2018-08-17T07:49:29.652Z,99.90
2018-08-17T07:51:59.310Z,99.90
2018-08-17T07:54:28.902Z,99.90
2018-08-17T07:56:58.817Z,99.90
2018-08-17T07:59:28.524Z,99.90
2018-08-17T08:01:58.048Z,99.90
2018-08-17T08:04:27.605Z,99.90
2018-08-17T08:06:58.055Z,99.90
2018-08-17T08:09:27.688Z,99.90
2018-08-17T08:11:57.231Z,99.90
2018-08-17T08:14:26.738Z,99.90
2018-08-17T08:16:56.317Z,99.90
2018-08-17T08:19:26.003Z,99.90
2018-08-17T08:21:55.514Z,99.90
2018-08-17T08:24:25.013Z,99.90
2018-08-17T08:26:54.499Z,99.90
2018-08-17T08:29:24.054Z,99.90
2018-08-17T08:31:53.450Z,99.90
2018-08-17T08:34:23.063Z,99.90
2018-08-17T08:36:52.541Z,99.90
2018-08-17T08:39:22.476Z,99.90
2018-08-17T08:41:52.844Z,99.90
2018-08-17T08:44:22.397Z,99.90
2018-08-17T08:46:51.966Z,99.90
2018-08-17T08:49:21.605Z,99.90
2018-08-17T08:51:51.129Z,99.90
2018-08-17T08:54:20.752Z,99.90
2018-08-17T08:56:50.359Z,99.90
2018-08-17T08:59:20.231Z,99.90
2018-08-17T09:01:49.858Z,99.90
2018-08-17T09:04:19.662Z,99.90
2018-08-17T09:06:49.203Z,99.90
2018-08-17T09:09:18.840Z,99.90
2018-08-17T09:11:48.901Z,99.90
2018-08-17T09:14:18.435Z,99.90
2018-08-17T09:16:47.990Z,99.90
2018-08-17T09:19:17.684Z,99.90
2018-08-17T09:21:47.335Z,99.90
2018-08-17T09:24:16.866Z,99.90
2018-08-17T09:26:46.431Z,99.90
2018-08-17T09:29:16.109Z,99.90
2018-08-17T09:31:45.683Z,99.90
2018-08-17T09:34:15.235Z,99.90
2018-08-17T09:36:44.819Z,99.90
2018-08-17T09:39:14.496Z,99.90
2018-08-17T09:41:44.063Z,99.90
2018-08-17T09:44:13.949Z,99.90
2018-08-17T09:46:43.651Z,99.90
2018-08-17T09:49:13.349Z,99.90
2018-08-17T09:51:42.835Z,99.90
2018-08-17T09:54:12.338Z,99.90
2018-08-17T09:56:41.907Z,99.90
2018-08-17T09:59:11.651Z,99.90
2018-08-17T10:01:46.148Z,99.90
2018-08-17T10:04:20.666Z,99.90
2018-08-17T10:06:55.249Z,99.90
2018-08-17T10:09:29.954Z,99.90
2018-08-17T10:11:59.542Z,99.90
2018-08-17T10:14:29.598Z,99.90
2018-08-17T10:16:59.215Z,99.90
2018-08-17T10:19:28.782Z,99.90
2018-08-17T10:21:58.455Z,99.90
2018-08-17T10:24:27.890Z,99.90
2018-08-17T10:26:57.410Z,99.90
2018-08-17T10:29:28.117Z,99.90
2018-08-17T10:31:57.672Z,99.90
2018-08-17T10:34:27.222Z,99.90
2018-08-17T10:36:56.687Z,99.90
2018-08-17T10:39:26.324Z,99.90
2018-08-17T10:41:55.841Z,99.90
2018-08-17T10:44:25.479Z,99.90
2018-08-17T10:46:55.101Z,99.90
2018-08-17T10:49:24.720Z,99.90
2018-08-17T10:51:57.493Z,99.90
2018-08-17T10:54:27.144Z,99.90
2018-08-17T10:56:56.671Z,99.90
2018-08-17T10:59:26.303Z,99.90
2018-08-17T11:01:55.864Z,99.90
2018-08-17T11:04:25.399Z,99.90
2018-08-17T11:06:54.989Z,99.90
2018-08-17T11:09:24.546Z,99.90
2018-08-17T11:11:54.147Z,99.90
2018-08-17T11:14:23.782Z,99.90
2018-08-17T11:16:53.441Z,99.90
2018-08-17T11:19:24.192Z,99.90
2018-08-17T11:21:53.758Z,99.90
2018-08-17T11:24:23.436Z,99.90
2018-08-17T11:26:52.931Z,99.90
2018-08-17T11:29:22.565Z,99.90
2018-08-17T11:31:53.686Z,99.90
2018-08-17T11:34:23.281Z,99.30
2018-08-17T11:36:52.833Z,98.30
2018-08-17T11:39:22.498Z,99.20
2018-08-17T11:41:52.783Z,98.30
2018-08-17T11:44:22.672Z,96.40
2018-08-17T11:46:52.297Z,97.60
2018-08-17T11:49:22.103Z,96.40
2018-08-17T11:51:52.149Z,96.90
2018-08-17T11:54:21.786Z,95.40
2018-08-17T11:56:51.469Z,97.70
2018-08-17T11:59:20.987Z,97.10
2018-08-17T12:01:50.689Z,97.80
2018-08-17T12:04:20.294Z,97.10
2018-08-17T12:06:49.935Z,96.20
2018-08-17T12:09:19.698Z,97.50
2018-08-17T12:11:49.317Z,97.10
2018-08-17T12:14:18.938Z,96.20
2018-08-17T12:16:48.553Z,97.00
2018-08-17T12:19:18.452Z,95.90
2018-08-17T12:21:48.173Z,93.00
2018-08-17T12:24:18.608Z,94.60
2018-08-17T12:26:53.220Z,94.10
2018-08-17T12:29:23.063Z,92.80
2018-08-17T12:31:52.737Z,92.50
2018-08-17T12:34:22.373Z,92.50
2018-08-17T12:36:51.996Z,93.40
2018-08-17T12:39:21.569Z,95.00
2018-08-17T12:41:51.086Z,93.90
2018-08-17T12:44:20.708Z,95.60
2018-08-17T12:46:50.342Z,93.20
2018-08-17T12:49:20.004Z,94.80
2018-08-17T12:51:49.751Z,94.00
2018-08-17T12:54:23.384Z,93.00
2018-08-17T12:56:53.503Z,92.10
2018-08-17T12:59:23.094Z,92.50
2018-08-17T13:01:53.132Z,90.70
2018-08-17T13:04:22.696Z,91.20
2018-08-17T13:06:52.589Z,92.10
2018-08-17T13:09:22.471Z,91.00
2018-08-17T13:11:58.922Z,87.20
2018-08-17T13:14:28.876Z,90.30
2018-08-17T13:17:00.407Z,85.70
2018-08-17T13:19:30.054Z,83.90
2018-08-17T13:22:00.347Z,81.20
2018-08-17T13:24:30.470Z,81.80
2018-08-17T13:26:59.993Z,83.40
2018-08-17T13:29:30.556Z,80.90
2018-08-17T13:32:00.271Z,86.30
2018-08-17T13:34:29.845Z,87.80
2018-08-17T13:36:59.355Z,88.10
2018-08-17T13:39:29.040Z,91.20
2018-08-17T13:41:58.625Z,91.30
2018-08-17T13:44:28.332Z,91.70
2018-08-17T13:46:57.898Z,92.30
2018-08-17T13:49:27.504Z,91.10
2018-08-17T13:51:57.119Z,91.80
2018-08-17T13:54:26.742Z,92.10
2018-08-17T13:56:56.287Z,92.20
2018-08-17T13:59:25.966Z,92.10
2018-08-17T14:01:55.558Z,93.30
2018-08-17T14:04:25.233Z,93.80
2018-08-17T14:06:54.823Z,95.10
2018-08-17T14:09:24.422Z,95.60
2018-08-17T14:11:54.041Z,96.10
2018-08-17T14:14:29.943Z,93.70
2018-08-17T14:16:59.824Z,95.20
2018-08-17T14:19:29.478Z,97.30
2018-08-17T14:21:59.105Z,97.40
2018-08-17T14:24:28.645Z,94.60
2018-08-17T14:26:58.526Z,96.10
2018-08-17T14:29:28.705Z,97.90
2018-08-17T14:31:58.383Z,96.80
2018-08-17T14:34:28.011Z,98.00
2018-08-17T14:36:57.599Z,99.40
2018-08-17T14:39:27.382Z,99.90
2018-08-17T14:42:00.186Z,99.90
2018-08-17T14:44:30.190Z,97.40
2018-08-17T14:46:59.861Z,96.40
2018-08-17T14:49:29.570Z,96.50
2018-08-17T14:51:59.188Z,96.00
2018-08-17T14:54:28.922Z,97.20
2018-08-17T14:56:58.884Z,98.00
2018-08-17T14:59:28.615Z,97.20
2018-08-17T15:01:58.417Z,98.00
2018-08-17T15:04:28.016Z,97.70
2018-08-17T15:06:57.754Z,97.40
2018-08-17T15:09:27.360Z,98.40
2018-08-17T15:11:57.103Z,99.60
2018-08-17T15:14:26.651Z,99.60
2018-08-17T15:16:56.177Z,98.80
2018-08-17T15:19:25.851Z,98.80
2018-08-17T15:21:55.372Z,99.50
2018-08-17T15:24:25.041Z,99.80
2018-08-17T15:26:54.710Z,99.00
2018-08-17T15:29:24.325Z,99.90
2018-08-17T15:31:53.998Z,98.50
2018-08-17T15:34:23.644Z,99.50
2018-08-17T15:36:53.218Z,99.00
2018-08-17T15:39:22.738Z,99.90
2018-08-17T15:41:52.253Z,98.50
2018-08-17T15:44:26.192Z,98.50
2018-08-17T15:46:57.323Z,98.50
2018-08-17T15:49:32.045Z,98.70
2018-08-17T15:52:02.670Z,98.80
2018-08-17T15:54:32.332Z,98.20
2018-08-17T15:57:02.428Z,98.00
2018-08-17T15:59:32.201Z,98.50
2018-08-17T16:02:02.164Z,98.90
2018-08-17T16:04:31.609Z,97.30
2018-08-17T16:07:01.117Z,98.40
2018-08-17T16:09:30.740Z,96.70
2018-08-17T16:12:00.373Z,97.80
2018-08-17T16:14:29.938Z,97.30
2018-08-17T16:16:59.457Z,96.90
2018-08-17T16:19:29.057Z,96.90
2018-08-17T16:21:58.663Z,96.50
2018-08-17T16:24:28.156Z,98.00
2018-08-17T16:26:57.693Z,97.70
2018-08-17T16:29:27.352Z,98.90
2018-08-17T16:31:57.813Z,99.90
2018-08-17T16:34:28.667Z,99.90
2018-08-17T16:36:58.284Z,99.90
2018-08-17T16:39:27.858Z,99.90
2018-08-17T16:41:57.418Z,99.90
2018-08-17T16:44:26.967Z,99.80
2018-08-17T16:46:56.553Z,99.90
2018-08-17T16:49:26.218Z,99.90
2018-08-17T16:51:55.728Z,99.90
2018-08-17T16:54:25.311Z,99.90
2018-08-17T16:56:54.896Z,99.90
2018-08-17T16:59:24.554Z,99.90
2018-08-17T17:01:54.444Z,99.00
2018-08-17T17:04:25.128Z,99.90
2018-08-17T17:06:54.712Z,98.80
2018-08-17T17:09:24.278Z,99.90
2018-08-17T17:11:53.799Z,99.70
2018-08-17T17:14:23.375Z,99.90
2018-08-17T17:16:52.881Z,99.90
2018-08-17T17:19:22.942Z,99.90
2018-08-17T17:21:52.880Z,99.90
2018-08-17T17:24:22.487Z,99.90
2018-08-17T17:26:52.203Z,99.90
2018-08-17T17:29:21.907Z,99.90
2018-08-17T17:31:52.144Z,99.90
2018-08-17T17:34:21.837Z,99.90
2018-08-17T17:36:51.774Z,99.90
2018-08-17T17:39:21.448Z,99.90
2018-08-17T17:41:51.103Z,99.90
2018-08-17T17:44:20.602Z,99.90
2018-08-17T17:46:50.254Z,99.90
2018-08-17T17:49:19.869Z,99.90
2018-08-17T17:51:49.548Z,99.90
2018-08-17T17:54:23.868Z,99.90
2018-08-17T17:56:59.650Z,99.90
2018-08-17T17:59:29.232Z,99.90
2018-08-17T18:01:59.573Z,99.90
2018-08-17T18:04:32.248Z,99.90
2018-08-17T18:07:02.038Z,99.90
2018-08-17T18:09:31.656Z,99.90
2018-08-17T18:12:01.335Z,99.90
2018-08-17T18:14:30.864Z,99.90
2018-08-17T18:17:00.458Z,99.90
2018-08-17T18:19:30.182Z,99.90
2018-08-17T18:21:59.711Z,99.90
2018-08-17T18:24:29.315Z,99.90
2018-08-17T18:26:59.028Z,99.90
2018-08-17T18:29:28.582Z,99.90
2018-08-17T18:31:58.090Z,99.90
2018-08-17T18:34:27.603Z,99.90
2018-08-17T18:36:57.481Z,99.90
2018-08-17T18:39:28.090Z,99.90
2018-08-17T18:41:57.665Z,99.90
2018-08-17T18:44:27.310Z,99.90
2018-08-17T18:46:56.776Z,99.90
2018-08-17T18:49:26.500Z,99.90
2018-08-17T18:51:56.162Z,99.90
2018-08-17T18:54:25.721Z,99.90
2018-08-17T18:56:55.234Z,99.90
2018-08-17T18:59:24.957Z,99.90
2018-08-17T19:01:54.745Z,99.90
2018-08-17T19:04:24.286Z,99.90
2018-08-17T19:06:54.377Z,99.90
2018-08-17T19:09:24.005Z,99.90
2018-08-17T19:11:54.756Z,99.90
2018-08-17T19:14:24.407Z,99.90
2018-08-17T19:16:54.035Z,99.90
2018-08-17T19:19:23.625Z,99.90
2018-08-17T19:21:53.347Z,99.90
2018-08-17T19:24:23.253Z,99.90
2018-08-17T19:26:52.920Z,99.90
2018-08-17T19:29:22.472Z,99.90
2018-08-17T19:31:56.075Z,99.90
2018-08-17T19:34:28.205Z,99.90
2018-08-17T19:36:58.114Z,99.90
2018-08-17T19:39:34.112Z,99.90
2018-08-17T19:42:04.508Z,99.90
2018-08-17T19:44:34.097Z,99.90
2018-08-17T19:47:03.692Z,99.90
2018-08-17T19:49:33.309Z,99.90
2018-08-17T19:52:03.194Z,99.90
2018-08-17T19:54:32.816Z,99.90
2018-08-17T19:57:02.640Z,99.90
2018-08-17T19:59:32.686Z,99.90
2018-08-17T20:02:02.373Z,99.90
2018-08-17T20:04:31.996Z,99.90
2018-08-17T20:07:01.667Z,99.90
2018-08-17T20:09:31.436Z,99.90
2018-08-17T20:12:00.981Z,99.90
2018-08-17T20:14:31.129Z,99.90
2018-08-17T20:17:00.709Z,99.90
2018-08-17T20:19:36.040Z,99.90
2018-08-17T20:22:06.117Z,99.90
2018-08-17T20:24:35.735Z,99.90
2018-08-17T20:27:05.378Z,99.90
2018-08-17T20:29:34.977Z,99.90
2018-08-17T20:32:05.373Z,99.90
2018-08-17T20:34:36.793Z,99.90
2018-08-17T20:37:06.727Z,99.90
2018-08-17T20:39:39.242Z,99.90
2018-08-17T20:42:09.294Z,99.90
2018-08-17T20:44:39.875Z,99.90
2018-08-17T20:47:10.448Z,99.90
2018-08-17T20:49:40.419Z,99.90
2018-08-17T20:52:10.431Z,99.90
2018-08-17T20:54:40.159Z,99.90
2018-08-17T20:57:09.948Z,99.90
2018-08-17T20:59:40.135Z,99.90
2018-08-17T21:02:10.079Z,99.90
2018-08-17T21:04:39.885Z,99.90
2018-08-17T21:07:09.688Z,99.90
2018-08-17T21:09:39.517Z,99.90
2018-08-17T21:12:09.354Z,99.90
2018-08-17T21:14:39.048Z,99.90
2018-08-17T21:17:09.245Z,99.90
2018-08-17T21:19:41.330Z,99.90
2018-08-17T21:22:11.958Z,99.90
2018-08-17T21:24:42.043Z,99.90
2018-08-17T21:27:11.795Z,99.90
2018-08-17T21:29:41.930Z,99.90
2018-08-17T21:32:11.801Z,99.90
2018-08-17T21:34:41.747Z,99.90
2018-08-17T21:37:12.069Z,99.90
2018-08-17T21:39:42.079Z,99.90
2018-08-17T21:42:11.836Z,99.90
2018-08-17T21:44:41.578Z,99.90
2018-08-17T21:47:11.858Z,99.90
2018-08-17T21:49:41.733Z,99.90
2018-08-17T21:52:15.589Z,99.90
2018-08-17T21:54:44.945Z,99.90
2018-08-17T21:57:14.288Z,99.90
2018-08-17T21:59:48.552Z,99.90
2018-08-17T22:02:18.959Z,99.90
2018-08-17T22:04:48.353Z,99.90
2018-08-17T22:07:23.951Z,99.90
2018-08-17T22:09:54.373Z,99.90
2018-08-17T22:12:23.792Z,99.90
2018-08-17T22:14:53.137Z,99.90
2018-08-17T22:17:33.727Z,99.90
2018-08-17T22:20:03.448Z,99.90
2018-08-17T22:22:32.829Z,99.90
2018-08-17T22:25:05.375Z,99.90
2018-08-17T22:27:35.184Z,99.90
2018-08-17T22:30:05.588Z,99.90
2018-08-17T22:32:34.941Z,99.90
2018-08-17T22:35:04.444Z,99.90
2018-08-17T22:37:34.842Z,99.90
2018-08-17T22:40:04.346Z,99.90
2018-08-17T22:42:33.725Z,99.90
2018-08-17T22:45:03.564Z,99.90
2018-08-17T22:47:32.934Z,99.90
2018-08-17T22:50:04.006Z,99.90
2018-08-17T22:52:34.538Z,99.90
2018-08-17T22:55:06.268Z,99.90
2018-08-17T22:57:35.672Z,99.90
2018-08-17T23:00:16.105Z,99.90
2018-08-17T23:02:46.336Z,99.90
2018-08-17T23:05:18.191Z,99.90
2018-08-17T23:07:47.797Z,99.90
2018-08-17T23:10:19.043Z,99.90
2018-08-17T23:12:49.577Z,99.90
2018-08-17T23:15:19.004Z,99.90
2018-08-17T23:17:50.241Z,99.90
2018-08-17T23:20:24.824Z,99.90
2018-08-17T23:22:55.367Z,99.90
2018-08-17T23:25:24.812Z,99.90
2018-08-17T23:27:54.508Z,99.90
2018-08-17T23:30:24.128Z,99.90
2018-08-17T23:32:53.527Z,99.90
2018-08-17T23:35:22.917Z,99.90
2018-08-17T23:37:52.372Z,99.90
2018-08-17T23:40:21.793Z,99.90
2018-08-17T23:42:51.160Z,99.90
2018-08-17T23:45:20.581Z,99.90
2018-08-17T23:47:49.943Z,99.90
2018-08-17T23:50:19.386Z,99.90
2018-08-17T23:52:48.975Z,99.90
2018-08-17T23:55:18.940Z,99.90
2018-08-17T23:57:48.319Z,99.90
